createdAt,value
2023-09-25T00:00:09.343Z,18.49
2023-09-25T00:05:12.857Z,18.34
2023-09-25T00:10:16.365Z,18.32
2023-09-25T00:15:21.413Z,18.39
2023-09-25T00:20:25.519Z,18.25
2023-09-25T00:25:29.926Z,18.19
2023-09-25T00:30:35.358Z,18.22
2023-09-25T00:35:38.843Z,18.08
2023-09-25T00:40:42.359Z,18.14
2023-09-25T00:45:48.525Z,18.10
2023-09-25T00:50:52.108Z,18.11
2023-09-25T00:55:56.369Z,18.12
2023-09-25T01:01:01.839Z,18.18
2023-09-25T01:06:06.515Z,17.92
2023-09-25T01:11:10.558Z,17.91
2023-09-25T01:16:15.710Z,17.88
2023-09-25T01:21:19.358Z,17.71
2023-09-25T01:26:24.414Z,17.60
2023-09-25T01:31:27.990Z,17.49
2023-09-25T01:36:31.528Z,17.41
2023-09-25T01:41:36.937Z,17.44
2023-09-25T01:46:41.665Z,17.24
2023-09-25T01:51:46.300Z,17.14
2023-09-25T01:56:51.318Z,17.02
2023-09-25T02:01:54.856Z,16.93
2023-09-25T02:06:58.398Z,16.87
2023-09-25T02:12:03.289Z,16.97
2023-09-25T02:17:07.501Z,16.96
2023-09-25T02:22:11.558Z,17.04
2023-09-25T02:27:16.552Z,17.03
2023-09-25T02:32:20.254Z,16.95
2023-09-25T02:37:23.808Z,16.86
2023-09-25T02:42:29.192Z,16.89
2023-09-25T02:47:32.742Z,16.85
2023-09-25T02:52:36.209Z,16.82
2023-09-25T02:57:41.318Z,16.86
2023-09-25T03:02:45.686Z,16.87
2023-09-25T03:07:49.924Z,16.90
2023-09-25T03:12:54.833Z,16.92
2023-09-25T03:17:58.411Z,16.85
2023-09-25T03:23:01.955Z,16.81
2023-09-25T03:28:07.187Z,16.80
2023-09-25T03:33:11.361Z,16.80
2023-09-25T03:38:14.968Z,16.84
2023-09-25T03:43:19.887Z,16.94
2023-09-25T03:48:23.437Z,16.87
2023-09-25T03:53:26.921Z,16.87
2023-09-25T03:58:32.090Z,16.92
2023-09-25T04:03:35.759Z,16.97
2023-09-25T04:08:39.337Z,17.10
2023-09-25T04:13:44.239Z,17.21
2023-09-25T04:18:49.676Z,17.23
2023-09-25T04:23:53.823Z,17.37
2023-09-25T04:28:58.725Z,17.44
2023-09-25T04:34:04.458Z,17.47
2023-09-25T04:39:11.756Z,17.59
2023-09-25T04:44:16.753Z,17.72
2023-09-25T04:49:20.383Z,17.82
2023-09-25T04:54:23.956Z,17.80
2023-09-25T04:59:28.870Z,17.83
2023-09-25T05:04:32.324Z,17.75
2023-09-25T05:09:35.908Z,17.58
2023-09-25T05:14:40.867Z,17.72
2023-09-25T05:19:44.395Z,17.69
2023-09-25T05:24:48.259Z,17.85
2023-09-25T05:29:53.259Z,18.06
2023-09-25T05:34:56.872Z,18.27
2023-09-25T05:40:00.416Z,18.39
2023-09-25T05:45:07.071Z,18.68
2023-09-25T05:50:11.766Z,19.22
2023-09-25T05:55:15.277Z,19.36
2023-09-25T06:00:20.582Z,19.35
2023-09-25T06:05:24.513Z,19.19
2023-09-25T06:10:28.058Z,19.04
2023-09-25T06:15:34.115Z,19.09
2023-09-25T06:20:39.911Z,19.04
2023-09-25T06:25:45.934Z,19.10
2023-09-25T06:30:51.035Z,19.26
2023-09-25T06:35:54.872Z,19.08
2023-09-25T06:40:58.392Z,19.19
2023-09-25T06:46:03.598Z,19.42
2023-09-25T06:51:07.270Z,19.25
2023-09-25T06:56:11.333Z,19.05
2023-09-25T07:01:16.633Z,19.16
2023-09-25T07:06:20.728Z,19.40
2023-09-25T07:11:24.629Z,19.78
2023-09-25T07:16:30.197Z,20.36
2023-09-25T07:21:33.767Z,20.54
2023-09-25T07:26:38.666Z,20.35
2023-09-25T07:31:43.697Z,20.42
2023-09-25T07:36:47.393Z,20.45
2023-09-25T07:41:51.296Z,20.20
2023-09-25T07:46:58.463Z,20.14
2023-09-25T07:52:02.202Z,19.95
2023-09-25T07:57:06.028Z,19.85
2023-09-25T08:02:12.376Z,19.73
2023-09-25T08:07:15.966Z,19.57
2023-09-25T08:12:19.495Z,19.47
2023-09-25T08:17:24.403Z,19.47
2023-09-25T08:22:28.222Z,19.62
2023-09-25T08:27:31.816Z,19.62
2023-09-25T08:32:36.983Z,19.64
2023-09-25T08:37:41.447Z,19.78
2023-09-25T08:42:44.678Z,19.88
2023-09-25T08:47:49.688Z,19.89
2023-09-25T08:52:53.704Z,20.12
2023-09-25T08:57:57.662Z,20.07
2023-09-25T09:03:02.945Z,20.12
2023-09-25T09:08:07.958Z,20.14
2023-09-25T09:13:12.528Z,20.21
2023-09-25T09:18:25.759Z,20.27
2023-09-25T09:23:45.426Z,20.41
2023-09-25T09:28:49.702Z,20.84
2023-09-25T09:33:57.646Z,21.35
2023-09-25T09:39:02.775Z,21.03
2023-09-25T09:44:06.780Z,21.00
2023-09-25T09:49:15.579Z,21.17
2023-09-25T09:54:21.400Z,21.13
2023-09-25T09:59:25.030Z,21.10
2023-09-25T10:04:31.049Z,21.03
2023-09-25T10:09:35.154Z,21.57
2023-09-25T10:14:41.873Z,22.10
2023-09-25T10:19:54.415Z,22.45
2023-09-25T10:25:05.914Z,22.40
2023-09-25T10:30:15.565Z,22.26
2023-09-25T10:35:39.307Z,22.46
2023-09-25T10:40:47.657Z,22.02
2023-09-25T10:45:53.684Z,22.04
2023-09-25T10:50:58.609Z,22.21
2023-09-25T10:56:02.134Z,22.06
2023-09-25T11:01:09.039Z,22.23
2023-09-25T11:06:14.716Z,22.24
2023-09-25T11:11:19.093Z,22.09
2023-09-25T11:16:23.399Z,21.92
2023-09-25T11:21:32.804Z,22.14
2023-09-25T11:26:38.992Z,21.85
2023-09-25T11:32:01.325Z,21.73
2023-09-25T11:37:08.910Z,21.42
2023-09-25T11:42:12.811Z,21.05
2023-09-25T11:47:16.551Z,20.97
2023-09-25T11:52:22.155Z,21.37
2023-09-25T11:57:25.716Z,21.50
2023-09-25T12:02:32.023Z,21.42
2023-09-25T12:07:38.409Z,21.08
2023-09-25T12:12:42.603Z,20.91
2023-09-25T12:17:49.070Z,20.83
2023-09-25T12:22:56.344Z,20.87
2023-09-25T12:28:00.078Z,20.97
2023-09-25T12:33:04.781Z,21.15
2023-09-25T12:38:10.533Z,21.40
2023-09-25T12:43:14.209Z,21.36
2023-09-25T12:48:19.090Z,21.52
2023-09-25T12:53:24.231Z,21.62
2023-09-25T12:58:27.956Z,21.37
2023-09-25T13:03:32.864Z,21.37
2023-09-25T13:08:38.207Z,21.50
2023-09-25T13:13:41.800Z,21.18
2023-09-25T13:18:45.544Z,21.23
2023-09-25T13:23:50.970Z,21.22
2023-09-25T13:28:56.374Z,21.10
2023-09-25T13:34:01.877Z,21.14
2023-09-25T13:39:07.098Z,21.00
2023-09-25T13:44:11.963Z,20.89
2023-09-25T13:49:15.666Z,20.84
2023-09-25T13:54:20.707Z,20.52
2023-09-25T13:59:24.290Z,20.05
2023-09-25T14:04:29.266Z,19.85
2023-09-25T14:09:34.532Z,19.80
2023-09-25T14:14:45.008Z,19.53
2023-09-25T14:19:48.800Z,19.40
2023-09-25T14:24:53.917Z,19.28
2023-09-25T14:29:57.921Z,19.22
2023-09-25T14:35:01.419Z,19.02
2023-09-25T14:40:09.133Z,18.82
2023-09-25T14:45:13.393Z,18.48
2023-09-25T14:50:17.827Z,18.23
2023-09-25T14:55:23.130Z,17.98
2023-09-25T15:00:26.656Z,17.81
2023-09-25T15:05:30.355Z,17.60
2023-09-25T15:10:35.306Z,17.43
2023-09-25T15:15:39.172Z,17.20
2023-09-25T15:20:42.983Z,17.09
2023-09-25T15:25:48.158Z,16.92
2023-09-25T15:30:51.990Z,16.73
2023-09-25T15:35:56.081Z,16.60
2023-09-25T15:41:01.085Z,16.49
2023-09-25T15:46:12.443Z,16.20
2023-09-25T15:51:16.099Z,16.00
2023-09-25T15:56:21.099Z,15.87
2023-09-25T16:01:24.874Z,15.71
2023-09-25T16:06:28.636Z,15.56
2023-09-25T16:11:33.639Z,15.46
2023-09-25T16:16:37.309Z,15.07
2023-09-25T16:21:41.074Z,14.72
2023-09-25T16:26:46.101Z,14.54
2023-09-25T16:31:49.669Z,14.41
2023-09-25T16:36:53.688Z,14.32
2023-09-25T16:41:58.649Z,14.31
2023-09-25T16:47:02.252Z,14.24
2023-09-25T16:52:06.369Z,14.18
2023-09-25T16:57:11.333Z,14.13
2023-09-25T17:02:14.974Z,14.06
2023-09-25T17:07:18.675Z,13.89
2023-09-25T17:12:23.611Z,13.92
2023-09-25T17:17:27.238Z,13.86
2023-09-25T17:22:30.773Z,13.79
2023-09-25T17:27:35.766Z,13.71
2023-09-25T17:32:39.525Z,13.64
2023-09-25T17:37:43.155Z,13.57
2023-09-25T17:42:48.136Z,13.54
2023-09-25T17:47:51.971Z,13.40
2023-09-25T17:52:55.722Z,13.29
2023-09-25T17:58:00.946Z,13.26
2023-09-25T18:03:06.541Z,13.11
2023-09-25T18:08:10.591Z,13.02
2023-09-25T18:13:17.915Z,13.00
2023-09-25T18:18:21.777Z,12.87
2023-09-25T18:23:25.450Z,12.86
2023-09-25T18:28:31.007Z,12.80
2023-09-25T18:33:35.069Z,12.76
2023-09-25T18:38:38.622Z,12.67
2023-09-25T18:43:43.637Z,12.69
2023-09-25T18:48:47.218Z,12.58
2023-09-25T18:53:50.913Z,12.48
2023-09-25T18:58:55.960Z,12.46
2023-09-25T19:03:59.481Z,12.41
2023-09-25T19:09:03.093Z,12.34
2023-09-25T19:14:07.991Z,12.32
2023-09-25T19:19:11.653Z,12.20
2023-09-25T19:24:15.178Z,12.13
2023-09-25T19:29:20.088Z,12.14
2023-09-25T19:34:23.750Z,12.08
2023-09-25T19:39:27.289Z,12.06
2023-09-25T19:44:32.227Z,12.04
2023-09-25T19:49:35.790Z,11.98
2023-09-25T19:54:39.844Z,11.93
2023-09-25T19:59:45.041Z,11.92
2023-09-25T20:04:50.649Z,11.79
2023-09-25T20:09:54.670Z,11.82
2023-09-25T20:14:59.672Z,11.82
2023-09-25T20:20:03.395Z,11.76
2023-09-25T20:25:08.229Z,11.76
2023-09-25T20:30:14.495Z,11.59
2023-09-25T20:35:18.030Z,11.48
2023-09-25T20:40:21.715Z,11.47
2023-09-25T20:45:27.032Z,11.50
2023-09-25T20:50:30.870Z,11.44
2023-09-25T20:55:34.519Z,11.42
2023-09-25T21:00:39.490Z,11.42
2023-09-25T21:05:43.005Z,11.34
2023-09-25T21:10:46.691Z,11.25
2023-09-25T21:15:51.757Z,11.28
2023-09-25T21:20:55.354Z,11.20
2023-09-25T21:25:59.316Z,11.16
2023-09-25T21:31:04.478Z,11.11
2023-09-25T21:36:08.446Z,11.02
2023-09-25T21:41:11.993Z,10.92
2023-09-25T21:46:17.012Z,10.95
2023-09-25T21:51:20.695Z,10.89
2023-09-25T21:56:24.462Z,10.84
2023-09-25T22:01:29.505Z,10.86
2023-09-25T22:06:33.253Z,10.74
2023-09-25T22:11:36.822Z,10.62
2023-09-25T22:16:43.278Z,10.54
2023-09-25T22:21:48.489Z,10.41
2023-09-25T22:26:52.296Z,10.37
2023-09-25T22:31:57.226Z,10.35
2023-09-25T22:37:00.752Z,10.26
2023-09-25T22:42:05.959Z,10.21
2023-09-25T22:47:11.006Z,10.21
2023-09-25T22:52:14.569Z,10.09
2023-09-25T22:57:18.087Z,10.03
2023-09-25T23:02:23.790Z,10.08
2023-09-25T23:07:27.466Z,10.02
2023-09-25T23:12:30.923Z,10.01
2023-09-25T23:17:35.931Z,10.01
2023-09-25T23:22:39.467Z,9.91
2023-09-25T23:27:43.321Z,9.85
2023-09-25T23:32:49.541Z,9.85
2023-09-25T23:37:53.137Z,9.72
2023-09-25T23:42:56.643Z,9.67
2023-09-25T23:48:01.768Z,9.68
2023-09-25T23:53:05.713Z,9.60
2023-09-25T23:58:09.305Z,9.53
